sensor_id;sensor_type;location;lat;lon;timestamp;temperature;humidity
25741;DHT22;13592;50.838;4.412;2023-02-21T00:01:40;9.50;99.90
25741;DHT22;13592;50.838;4.412;2023-02-21T00:04:26;9.30;99.90
25741;DHT22;13592;50.838;4.412;2023-02-21T00:07:11;9.40;99.90
25741;DHT22;13592;50.838;4.412;2023-02-21T00:09:57;9.40;99.90
25741;DHT22;13592;50.838;4.412;2023-02-21T00:15:32;9.50;99.90
25741;DHT22;13592;50.838;4.412;2023-02-21T00:18:20;9.60;99.90
25741;DHT22;13592;50.838;4.412;2023-02-21T00:21:08;9.70;99.90
25741;DHT22;13592;50.838;4.412;2023-02-21T00:23:54;9.70;99.90
25741;DHT22;13592;50.838;4.412;2023-02-21T00:26:39;9.60;99.90
25741;DHT22;13592;50.838;4.412;2023-02-21T00:29:32;9.80;99.90
25741;DHT22;13592;50.838;4.412;2023-02-21T00:32:19;9.90;99.90
25741;DHT22;13592;50.838;4.412;2023-02-21T00:35:11;10.00;99.90
25741;DHT22;13592;50.838;4.412;2023-02-21T00:46:55;9.90;99.90
25741;DHT22;13592;50.838;4.412;2023-02-21T00:50:05;9.70;99.90
25741;DHT22;13592;50.838;4.412;2023-02-21T00:58:44;9.60;99.90
25741;DHT22;13592;50.838;4.412;2023-02-21T01:01:34;9.70;99.90
25741;DHT22;13592;50.838;4.412;2023-02-21T01:04:22;9.50;99.90
25741;DHT22;13592;50.838;4.412;2023-02-21T01:07:08;9.50;99.90
25741;DHT22;13592;50.838;4.412;2023-02-21T01:15:50;9.60;99.90
25741;DHT22;13592;50.838;4.412;2023-02-21T01:18:42;9.60;99.90
25741;DHT22;13592;50.838;4.412;2023-02-21T01:24:16;9.80;99.90
25741;DHT22;13592;50.838;4.412;2023-02-21T01:27:13;9.70;99.90
25741;DHT22;13592;50.838;4.412;2023-02-21T01:33:05;9.60;99.90
25741;DHT22;13592;50.838;4.412;2023-02-21T01:36:16;9.70;99.90
25741;DHT22;13592;50.838;4.412;2023-02-21T01:51:18;9.30;99.90
25741;DHT22;13592;50.838;4.412;2023-02-21T02:00:22;9.30;99.90
25741;DHT22;13592;50.838;4.412;2023-02-21T02:03:33;9.40;99.90
25741;DHT22;13592;50.838;4.412;2023-02-21T02:06:34;9.40;99.90
25741;DHT22;13592;50.838;4.412;2023-02-21T02:12:52;9.60;99.90
25741;DHT22;13592;50.838;4.412;2023-02-21T02:15:14;9.70;99.90
25741;DHT22;13592;50.838;4.412;2023-02-21T02:37:23;9.20;99.90
25741;DHT22;13592;50.838;4.412;2023-02-21T02:42:45;9.00;99.90
25741;DHT22;13592;50.838;4.412;2023-02-21T02:45:24;9.00;99.90
25741;DHT22;13592;50.838;4.412;2023-02-21T02:47:53;9.40;99.90
25741;DHT22;13592;50.838;4.412;2023-02-21T02:50:23;9.40;99.90
25741;DHT22;13592;50.838;4.412;2023-02-21T02:56:02;9.70;99.90
25741;DHT22;13592;50.838;4.412;2023-02-21T03:04:21;9.40;99.90
25741;DHT22;13592;50.838;4.412;2023-02-21T03:15:37;9.40;99.90
25741;DHT22;13592;50.838;4.412;2023-02-21T03:26:21;9.40;99.90
25741;DHT22;13592;50.838;4.412;2023-02-21T03:28:57;9.30;99.90
25741;DHT22;13592;50.838;4.412;2023-02-21T03:31:28;9.40;99.90
25741;DHT22;13592;50.838;4.412;2023-02-21T03:34:16;9.30;99.90
25741;DHT22;13592;50.838;4.412;2023-02-21T03:37:06;9.60;99.90
25741;DHT22;13592;50.838;4.412;2023-02-21T03:39:34;9.40;99.90
25741;DHT22;13592;50.838;4.412;2023-02-21T03:42:31;9.30;99.90
25741;DHT22;13592;50.838;4.412;2023-02-21T03:45:03;9.30;99.90
25741;DHT22;13592;50.838;4.412;2023-02-21T03:47:29;9.40;99.90
25741;DHT22;13592;50.838;4.412;2023-02-21T03:49:59;9.50;99.90
25741;DHT22;13592;50.838;4.412;2023-02-21T03:52:29;9.50;99.90
25741;DHT22;13592;50.838;4.412;2023-02-21T03:55:02;9.40;99.90
25741;DHT22;13592;50.838;4.412;2023-02-21T03:57:56;9.60;99.90
25741;DHT22;13592;50.838;4.412;2023-02-21T04:02:53;9.40;99.90
25741;DHT22;13592;50.838;4.412;2023-02-21T04:05:31;9.20;99.90
25741;DHT22;13592;50.838;4.412;2023-02-21T04:08:25;9.20;99.90
25741;DHT22;13592;50.838;4.412;2023-02-21T04:11:20;9.30;99.90
25741;DHT22;13592;50.838;4.412;2023-02-21T04:14:04;9.10;99.90
25741;DHT22;13592;50.838;4.412;2023-02-21T04:16:33;9.30;99.90
25741;DHT22;13592;50.838;4.412;2023-02-21T04:19:23;9.50;99.90
25741;DHT22;13592;50.838;4.412;2023-02-21T04:21:52;9.40;99.90
25741;DHT22;13592;50.838;4.412;2023-02-21T04:24:20;9.30;99.90
25741;DHT22;13592;50.838;4.412;2023-02-21T04:26:48;9.40;99.90
25741;DHT22;13592;50.838;4.412;2023-02-21T04:29:25;9.40;99.90
25741;DHT22;13592;50.838;4.412;2023-02-21T04:32:20;9.40;99.90
25741;DHT22;13592;50.838;4.412;2023-02-21T04:35:12;9.40;99.90
25741;DHT22;13592;50.838;4.412;2023-02-21T04:38:15;9.40;99.90
25741;DHT22;13592;50.838;4.412;2023-02-21T04:41:04;9.60;99.90
25741;DHT22;13592;50.838;4.412;2023-02-21T04:43:37;9.40;99.90
25741;DHT22;13592;50.838;4.412;2023-02-21T04:46:08;9.30;99.90
25741;DHT22;13592;50.838;4.412;2023-02-21T04:48:55;9.30;99.90
25741;DHT22;13592;50.838;4.412;2023-02-21T04:54:40;9.50;99.90
25741;DHT22;13592;50.838;4.412;2023-02-21T04:57:16;9.70;99.90
25741;DHT22;13592;50.838;4.412;2023-02-21T05:00:03;9.60;99.90
25741;DHT22;13592;50.838;4.412;2023-02-21T05:02:45;9.40;99.90
25741;DHT22;13592;50.838;4.412;2023-02-21T05:05:12;9.20;99.90
25741;DHT22;13592;50.838;4.412;2023-02-21T05:07:39;9.20;99.90
25741;DHT22;13592;50.838;4.412;2023-02-21T05:10:05;9.30;99.90
25741;DHT22;13592;50.838;4.412;2023-02-21T05:15:41;9.40;99.90
25741;DHT22;13592;50.838;4.412;2023-02-21T05:24:00;9.20;99.90
25741;DHT22;13592;50.838;4.412;2023-02-21T05:29:05;9.10;99.90
25741;DHT22;13592;50.838;4.412;2023-02-21T05:31:56;9.10;99.90
25741;DHT22;13592;50.838;4.412;2023-02-21T05:34:25;9.10;99.90
25741;DHT22;13592;50.838;4.412;2023-02-21T05:36:56;9.10;99.90
25741;DHT22;13592;50.838;4.412;2023-02-21T05:39:21;9.10;99.90
25741;DHT22;13592;50.838;4.412;2023-02-21T05:41:53;9.30;99.90
25741;DHT22;13592;50.838;4.412;2023-02-21T05:44:20;9.30;99.90
25741;DHT22;13592;50.838;4.412;2023-02-21T05:46:48;9.50;99.90
25741;DHT22;13592;50.838;4.412;2023-02-21T05:49:36;9.30;99.90
25741;DHT22;13592;50.838;4.412;2023-02-21T05:52:13;9.40;99.90
25741;DHT22;13592;50.838;4.412;2023-02-21T05:54:41;9.40;99.90
25741;DHT22;13592;50.838;4.412;2023-02-21T05:57:20;9.40;99.90
25741;DHT22;13592;50.838;4.412;2023-02-21T05:59:46;9.40;99.90
25741;DHT22;13592;50.838;4.412;2023-02-21T06:02:14;9.40;99.90
25741;DHT22;13592;50.838;4.412;2023-02-21T06:04:43;9.50;99.90
25741;DHT22;13592;50.838;4.412;2023-02-21T06:07:37;9.40;99.90
25741;DHT22;13592;50.838;4.412;2023-02-21T06:10:22;9.30;99.90
25741;DHT22;13592;50.838;4.412;2023-02-21T06:12:49;9.40;99.90
25741;DHT22;13592;50.838;4.412;2023-02-21T06:20:47;9.30;99.90
25741;DHT22;13592;50.838;4.412;2023-02-21T06:23:23;9.40;99.90
25741;DHT22;13592;50.838;4.412;2023-02-21T06:29:01;9.00;99.90
25741;DHT22;13592;50.838;4.412;2023-02-21T06:31:42;9.10;99.90
25741;DHT22;13592;50.838;4.412;2023-02-21T06:34:11;9.10;99.90
25741;DHT22;13592;50.838;4.412;2023-02-21T06:43:19;9.30;99.90
25741;DHT22;13592;50.838;4.412;2023-02-21T06:46:18;9.20;99.90
25741;DHT22;13592;50.838;4.412;2023-02-21T06:48:50;9.10;99.90
25741;DHT22;13592;50.838;4.412;2023-02-21T06:51:36;9.10;99.90
25741;DHT22;13592;50.838;4.412;2023-02-21T06:54:06;9.10;99.90
25741;DHT22;13592;50.838;4.412;2023-02-21T06:56:38;9.40;99.90
25741;DHT22;13592;50.838;4.412;2023-02-21T06:59:10;9.50;99.90
25741;DHT22;13592;50.838;4.412;2023-02-21T07:01:46;9.30;99.90
25741;DHT22;13592;50.838;4.412;2023-02-21T07:04:21;9.20;99.90
25741;DHT22;13592;50.838;4.412;2023-02-21T07:06:48;9.30;99.90
25741;DHT22;13592;50.838;4.412;2023-02-21T07:12:05;9.10;99.90
25741;DHT22;13592;50.838;4.412;2023-02-21T07:14:42;9.20;99.90
25741;DHT22;13592;50.838;4.412;2023-02-21T07:20:40;9.10;99.90
25741;DHT22;13592;50.838;4.412;2023-02-21T07:23:21;9.10;99.90
25741;DHT22;13592;50.838;4.412;2023-02-21T07:29:06;8.80;99.90
25741;DHT22;13592;50.838;4.412;2023-02-21T07:31:55;8.70;99.90
25741;DHT22;13592;50.838;4.412;2023-02-21T07:34:42;8.80;99.90
25741;DHT22;13592;50.838;4.412;2023-02-21T07:40:30;8.90;99.90
25741;DHT22;13592;50.838;4.412;2023-02-21T07:43:26;8.90;99.90
25741;DHT22;13592;50.838;4.412;2023-02-21T07:56:54;9.30;99.90
25741;DHT22;13592;50.838;4.412;2023-02-21T08:05:00;9.30;99.90
25741;DHT22;13592;50.838;4.412;2023-02-21T08:07:28;9.30;99.90
25741;DHT22;13592;50.838;4.412;2023-02-21T08:13:37;9.40;99.90
25741;DHT22;13592;50.838;4.412;2023-02-21T08:16:33;9.50;99.90
25741;DHT22;13592;50.838;4.412;2023-02-21T08:22:02;9.10;99.90
25741;DHT22;13592;50.838;4.412;2023-02-21T08:27:50;9.50;99.90
25741;DHT22;13592;50.838;4.412;2023-02-21T08:33:32;9.20;99.90
25741;DHT22;13592;50.838;4.412;2023-02-21T08:39:43;9.40;99.90
25741;DHT22;13592;50.838;4.412;2023-02-21T08:42:33;9.40;99.90
25741;DHT22;13592;50.838;4.412;2023-02-21T08:45:05;9.30;99.90
25741;DHT22;13592;50.838;4.412;2023-02-21T09:51:14;9.60;99.90
25741;DHT22;13592;50.838;4.412;2023-02-21T10:18:00;10.10;99.90
25741;DHT22;13592;50.838;4.412;2023-02-21T10:24:22;9.90;99.90
25741;DHT22;13592;50.838;4.412;2023-02-21T10:26:56;9.90;99.90
25741;DHT22;13592;50.838;4.412;2023-02-21T10:29:38;9.70;99.90
25741;DHT22;13592;50.838;4.412;2023-02-21T10:32:23;9.60;99.90
25741;DHT22;13592;50.838;4.412;2023-02-21T10:35:15;9.60;99.90
25741;DHT22;13592;50.838;4.412;2023-02-21T10:38:02;9.70;99.90
25741;DHT22;13592;50.838;4.412;2023-02-21T10:40:35;9.70;99.90
25741;DHT22;13592;50.838;4.412;2023-02-21T10:48:51;9.90;99.90
25741;DHT22;13592;50.838;4.412;2023-02-21T10:51:42;9.80;99.90
25741;DHT22;13592;50.838;4.412;2023-02-21T10:54:22;10.10;99.90
25741;DHT22;13592;50.838;4.412;2023-02-21T10:56:51;10.10;99.90
25741;DHT22;13592;50.838;4.412;2023-02-21T10:59:41;10.20;99.90
25741;DHT22;13592;50.838;4.412;2023-02-21T11:05:31;9.80;99.90
25741;DHT22;13592;50.838;4.412;2023-02-21T11:08:01;9.60;99.90
25741;DHT22;13592;50.838;4.412;2023-02-21T11:10:43;9.60;99.90
25741;DHT22;13592;50.838;4.412;2023-02-21T11:16:25;9.90;99.90
25741;DHT22;13592;50.838;4.412;2023-02-21T11:21:40;9.70;99.90
25741;DHT22;13592;50.838;4.412;2023-02-21T11:24:12;9.80;99.90
25741;DHT22;13592;50.838;4.412;2023-02-21T11:26:54;10.10;99.90
25741;DHT22;13592;50.838;4.412;2023-02-21T11:29:36;10.00;99.90
25741;DHT22;13592;50.838;4.412;2023-02-21T11:32:12;10.00;99.90
25741;DHT22;13592;50.838;4.412;2023-02-21T11:34:49;10.10;99.90
25741;DHT22;13592;50.838;4.412;2023-02-21T11:39:54;10.30;99.90
25741;DHT22;13592;50.838;4.412;2023-02-21T11:42:32;10.30;99.90
25741;DHT22;13592;50.838;4.412;2023-02-21T11:48:12;10.30;99.90
25741;DHT22;13592;50.838;4.412;2023-02-21T11:59:55;10.50;99.90
25741;DHT22;13592;50.838;4.412;2023-02-21T12:09:16;10.50;99.90
25741;DHT22;13592;50.838;4.412;2023-02-21T12:41:41;10.50;99.90
25741;DHT22;13592;50.838;4.412;2023-02-21T12:44:32;10.50;99.90
25741;DHT22;13592;50.838;4.412;2023-02-21T12:47:31;10.60;99.90
25741;DHT22;13592;50.838;4.412;2023-02-21T12:50:10;10.90;99.90
25741;DHT22;13592;50.838;4.412;2023-02-21T12:55:53;10.80;99.90
25741;DHT22;13592;50.838;4.412;2023-02-21T13:01:10;11.00;99.90
25741;DHT22;13592;50.838;4.412;2023-02-21T13:06:46;10.80;99.90
25741;DHT22;13592;50.838;4.412;2023-02-21T13:12:44;10.90;99.90
25741;DHT22;13592;50.838;4.412;2023-02-21T13:15:19;10.90;99.90
25741;DHT22;13592;50.838;4.412;2023-02-21T13:23:56;10.80;99.90
25741;DHT22;13592;50.838;4.412;2023-02-21T13:35:17;10.60;99.90
25741;DHT22;13592;50.838;4.412;2023-02-21T13:38:12;10.60;99.90
25741;DHT22;13592;50.838;4.412;2023-02-21T13:49:50;10.90;99.90
25741;DHT22;13592;50.838;4.412;2023-02-21T13:52:36;11.00;99.90
25741;DHT22;13592;50.838;4.412;2023-02-21T13:55:19;10.90;99.90
25741;DHT22;13592;50.838;4.412;2023-02-21T14:08:26;10.80;99.90
25741;DHT22;13592;50.838;4.412;2023-02-21T14:11:19;10.80;99.90
25741;DHT22;13592;50.838;4.412;2023-02-21T14:13:55;10.80;99.90
25741;DHT22;13592;50.838;4.412;2023-02-21T14:16:35;10.90;99.90
25741;DHT22;13592;50.838;4.412;2023-02-21T14:19:06;11.00;99.90
25741;DHT22;13592;50.838;4.412;2023-02-21T14:24:27;11.00;99.90
25741;DHT22;13592;50.838;4.412;2023-02-21T14:26:55;10.90;99.90
25741;DHT22;13592;50.838;4.412;2023-02-21T14:29:33;10.90;99.90
25741;DHT22;13592;50.838;4.412;2023-02-21T14:38:05;10.90;99.90
25741;DHT22;13592;50.838;4.412;2023-02-21T14:57:03;10.90;99.90
25741;DHT22;13592;50.838;4.412;2023-02-21T15:06:07;10.70;99.90
25741;DHT22;13592;50.838;4.412;2023-02-21T15:14:54;10.60;99.90
25741;DHT22;13592;50.838;4.412;2023-02-21T15:17:37;10.80;99.90
25741;DHT22;13592;50.838;4.412;2023-02-21T15:35:38;10.60;99.90
25741;DHT22;13592;50.838;4.412;2023-02-21T15:41:44;10.50;99.90
25741;DHT22;13592;50.838;4.412;2023-02-21T15:47:45;10.80;99.90
25741;DHT22;13592;50.838;4.412;2023-02-21T15:50:32;10.70;99.90
25741;DHT22;13592;50.838;4.412;2023-02-21T15:53:12;10.60;99.90
25741;DHT22;13592;50.838;4.412;2023-02-21T15:58:37;10.50;99.90
25741;DHT22;13592;50.838;4.412;2023-02-21T16:06:46;10.60;99.90
25741;DHT22;13592;50.838;4.412;2023-02-21T16:09:19;10.50;99.90
25741;DHT22;13592;50.838;4.412;2023-02-21T16:15:05;10.60;99.90
25741;DHT22;13592;50.838;4.412;2023-02-21T16:19:35;10.40;99.90
25741;DHT22;13592;50.838;4.412;2023-02-21T16:24:49;10.70;99.90
25741;DHT22;13592;50.838;4.412;2023-02-21T16:27:33;10.70;99.90
25741;DHT22;13592;50.838;4.412;2023-02-21T16:38:43;10.10;99.90
25741;DHT22;13592;50.838;4.412;2023-02-21T16:41:14;10.10;99.90
25741;DHT22;13592;50.838;4.412;2023-02-21T16:44:00;10.00;99.90
25741;DHT22;13592;50.838;4.412;2023-02-21T16:46:36;10.10;99.90
25741;DHT22;13592;50.838;4.412;2023-02-21T16:49:07;10.50;99.90
25741;DHT22;13592;50.838;4.412;2023-02-21T16:51:34;10.40;99.90
25741;DHT22;13592;50.838;4.412;2023-02-21T16:57:11;10.00;99.90
25741;DHT22;13592;50.838;4.412;2023-02-21T17:02:21;9.90;99.90
25741;DHT22;13592;50.838;4.412;2023-02-21T17:05:01;9.80;99.90
25741;DHT22;13592;50.838;4.412;2023-02-21T17:07:47;9.80;99.90
25741;DHT22;13592;50.838;4.412;2023-02-21T17:10:14;9.70;99.90
25741;DHT22;13592;50.838;4.412;2023-02-21T17:12:44;9.60;99.90
25741;DHT22;13592;50.838;4.412;2023-02-21T17:18:42;9.50;99.90
25741;DHT22;13592;50.838;4.412;2023-02-21T17:24:20;9.30;99.90
25741;DHT22;13592;50.838;4.412;2023-02-21T17:26:54;9.30;99.90
25741;DHT22;13592;50.838;4.412;2023-02-21T17:29:30;9.30;99.90
25741;DHT22;13592;50.838;4.412;2023-02-21T17:31:56;9.30;99.90
25741;DHT22;13592;50.838;4.412;2023-02-21T17:37:31;9.20;99.90
25741;DHT22;13592;50.838;4.412;2023-02-21T17:40:06;9.20;99.90
25741;DHT22;13592;50.838;4.412;2023-02-21T17:42:36;9.20;99.90
25741;DHT22;13592;50.838;4.412;2023-02-21T17:45:02;9.10;99.90
25741;DHT22;13592;50.838;4.412;2023-02-21T17:47:33;9.20;99.90
25741;DHT22;13592;50.838;4.412;2023-02-21T17:53:04;9.00;99.90
25741;DHT22;13592;50.838;4.412;2023-02-21T17:55:30;9.00;99.90
25741;DHT22;13592;50.838;4.412;2023-02-21T17:57:58;8.90;99.90
25741;DHT22;13592;50.838;4.412;2023-02-21T18:00:28;8.90;99.90
25741;DHT22;13592;50.838;4.412;2023-02-21T18:02:58;8.80;99.90
25741;DHT22;13592;50.838;4.412;2023-02-21T18:05:37;8.80;99.90
25741;DHT22;13592;50.838;4.412;2023-02-21T18:08:17;8.80;99.90
25741;DHT22;13592;50.838;4.412;2023-02-21T18:13:20;8.80;99.90
25741;DHT22;13592;50.838;4.412;2023-02-21T18:15:46;8.80;99.90
25741;DHT22;13592;50.838;4.412;2023-02-21T18:18:13;8.80;99.90
25741;DHT22;13592;50.838;4.412;2023-02-21T18:20:49;8.80;99.90
25741;DHT22;13592;50.838;4.412;2023-02-21T18:25:46;8.70;99.90
25741;DHT22;13592;50.838;4.412;2023-02-21T18:28:17;8.80;99.90
25741;DHT22;13592;50.838;4.412;2023-02-21T18:30:45;8.70;99.90
25741;DHT22;13592;50.838;4.412;2023-02-21T18:33:13;8.70;99.90
25741;DHT22;13592;50.838;4.412;2023-02-21T18:35:40;8.60;99.90
25741;DHT22;13592;50.838;4.412;2023-02-21T18:38:06;8.60;99.90
25741;DHT22;13592;50.838;4.412;2023-02-21T18:40:34;8.60;99.90
25741;DHT22;13592;50.838;4.412;2023-02-21T18:43:03;8.50;99.90
25741;DHT22;13592;50.838;4.412;2023-02-21T18:45:35;8.60;99.90
25741;DHT22;13592;50.838;4.412;2023-02-21T18:48:05;8.50;99.90
25741;DHT22;13592;50.838;4.412;2023-02-21T18:50:30;8.50;99.90
25741;DHT22;13592;50.838;4.412;2023-02-21T18:53:02;8.60;99.90
25741;DHT22;13592;50.838;4.412;2023-02-21T18:55:30;8.60;99.90
25741;DHT22;13592;50.838;4.412;2023-02-21T18:58:00;8.50;99.90
25741;DHT22;13592;50.838;4.412;2023-02-21T19:03:34;8.50;99.90
25741;DHT22;13592;50.838;4.412;2023-02-21T19:06:02;8.50;99.90
25741;DHT22;13592;50.838;4.412;2023-02-21T19:08:30;8.50;99.90
25741;DHT22;13592;50.838;4.412;2023-02-21T19:11:00;8.40;99.90
25741;DHT22;13592;50.838;4.412;2023-02-21T19:13:28;8.40;99.90
25741;DHT22;13592;50.838;4.412;2023-02-21T19:15:54;8.50;99.90
25741;DHT22;13592;50.838;4.412;2023-02-21T19:18:19;8.30;99.90
25741;DHT22;13592;50.838;4.412;2023-02-21T19:20:52;8.40;99.90
25741;DHT22;13592;50.838;4.412;2023-02-21T19:25:55;8.30;99.90
25741;DHT22;13592;50.838;4.412;2023-02-21T19:28:24;8.30;99.90
25741;DHT22;13592;50.838;4.412;2023-02-21T19:30:53;8.30;99.90
25741;DHT22;13592;50.838;4.412;2023-02-21T19:33:24;8.30;99.90
25741;DHT22;13592;50.838;4.412;2023-02-21T19:35:51;8.40;99.90
25741;DHT22;13592;50.838;4.412;2023-02-21T19:38:19;8.40;99.90
25741;DHT22;13592;50.838;4.412;2023-02-21T19:40:57;8.20;99.90
25741;DHT22;13592;50.838;4.412;2023-02-21T19:45:55;8.20;99.90
25741;DHT22;13592;50.838;4.412;2023-02-21T19:51:15;8.20;99.90
25741;DHT22;13592;50.838;4.412;2023-02-21T19:53:44;8.20;99.90
25741;DHT22;13592;50.838;4.412;2023-02-21T19:56:12;8.20;99.90
25741;DHT22;13592;50.838;4.412;2023-02-21T19:58:37;8.20;99.90
25741;DHT22;13592;50.838;4.412;2023-02-21T20:01:05;8.20;99.90
25741;DHT22;13592;50.838;4.412;2023-02-21T20:03:33;8.10;99.90
25741;DHT22;13592;50.838;4.412;2023-02-21T20:06:04;8.10;99.90
25741;DHT22;13592;50.838;4.412;2023-02-21T20:08:37;8.10;99.90
25741;DHT22;13592;50.838;4.412;2023-02-21T20:11:03;8.10;99.90
25741;DHT22;13592;50.838;4.412;2023-02-21T20:13:33;8.10;99.90
25741;DHT22;13592;50.838;4.412;2023-02-21T20:16:13;8.10;99.90
25741;DHT22;13592;50.838;4.412;2023-02-21T20:18:40;8.10;99.90
25741;DHT22;13592;50.838;4.412;2023-02-21T20:21:06;8.00;99.90
25741;DHT22;13592;50.838;4.412;2023-02-21T20:23:45;8.10;99.90
25741;DHT22;13592;50.838;4.412;2023-02-21T20:26:21;8.10;99.90
25741;DHT22;13592;50.838;4.412;2023-02-21T20:29:08;8.10;99.90
25741;DHT22;13592;50.838;4.412;2023-02-21T20:31:34;8.20;99.90
25741;DHT22;13592;50.838;4.412;2023-02-21T20:34:07;8.30;99.90
25741;DHT22;13592;50.838;4.412;2023-02-21T20:39:17;8.10;99.90
25741;DHT22;13592;50.838;4.412;2023-02-21T20:41:54;8.10;99.90
25741;DHT22;13592;50.838;4.412;2023-02-21T20:47:08;8.00;99.90
25741;DHT22;13592;50.838;4.412;2023-02-21T20:49:34;8.10;99.90
25741;DHT22;13592;50.838;4.412;2023-02-21T20:52:09;8.10;99.90
25741;DHT22;13592;50.838;4.412;2023-02-21T20:57:05;8.10;99.90
25741;DHT22;13592;50.838;4.412;2023-02-21T20:59:32;8.30;99.90
25741;DHT22;13592;50.838;4.412;2023-02-21T21:02:05;8.20;99.90
25741;DHT22;13592;50.838;4.412;2023-02-21T21:04:37;8.20;99.90
25741;DHT22;13592;50.838;4.412;2023-02-21T21:07:09;8.10;99.90
25741;DHT22;13592;50.838;4.412;2023-02-21T21:09:38;8.00;99.90
25741;DHT22;13592;50.838;4.412;2023-02-21T21:12:10;8.00;99.90
25741;DHT22;13592;50.838;4.412;2023-02-21T21:14:38;8.00;99.90
25741;DHT22;13592;50.838;4.412;2023-02-21T21:17:06;7.90;99.90
25741;DHT22;13592;50.838;4.412;2023-02-21T21:19:32;8.00;99.90
25741;DHT22;13592;50.838;4.412;2023-02-21T21:25:12;8.00;99.90
25741;DHT22;13592;50.838;4.412;2023-02-21T21:30:08;8.00;99.90
25741;DHT22;13592;50.838;4.412;2023-02-21T21:32:41;8.00;99.90
25741;DHT22;13592;50.838;4.412;2023-02-21T21:35:20;8.00;99.90
25741;DHT22;13592;50.838;4.412;2023-02-21T21:37:55;7.90;99.90
25741;DHT22;13592;50.838;4.412;2023-02-21T21:40:21;7.90;99.90
25741;DHT22;13592;50.838;4.412;2023-02-21T21:43:00;7.70;99.90
25741;DHT22;13592;50.838;4.412;2023-02-21T21:45:33;7.70;99.90
25741;DHT22;13592;50.838;4.412;2023-02-21T21:48:11;7.70;99.90
25741;DHT22;13592;50.838;4.412;2023-02-21T21:50:45;7.70;99.90
25741;DHT22;13592;50.838;4.412;2023-02-21T21:53:22;7.80;99.90
25741;DHT22;13592;50.838;4.412;2023-02-21T21:55:56;7.70;99.90
25741;DHT22;13592;50.838;4.412;2023-02-21T21:58:22;7.70;99.90
25741;DHT22;13592;50.838;4.412;2023-02-21T22:01:02;7.60;99.90
25741;DHT22;13592;50.838;4.412;2023-02-21T22:03:34;7.60;99.90
25741;DHT22;13592;50.838;4.412;2023-02-21T22:06:05;7.60;99.90
25741;DHT22;13592;50.838;4.412;2023-02-21T22:08:34;7.60;99.90
25741;DHT22;13592;50.838;4.412;2023-02-21T22:11:00;7.60;99.90
25741;DHT22;13592;50.838;4.412;2023-02-21T22:13:42;7.60;99.90
25741;DHT22;13592;50.838;4.412;2023-02-21T22:16:13;7.70;99.90
25741;DHT22;13592;50.838;4.412;2023-02-21T22:18:45;7.60;99.90
25741;DHT22;13592;50.838;4.412;2023-02-21T22:21:22;7.60;99.90
25741;DHT22;13592;50.838;4.412;2023-02-21T22:23:51;7.60;99.90
25741;DHT22;13592;50.838;4.412;2023-02-21T22:29:11;7.70;99.90
25741;DHT22;13592;50.838;4.412;2023-02-21T22:34:55;7.90;99.90
25741;DHT22;13592;50.838;4.412;2023-02-21T22:37:20;8.10;99.90
25741;DHT22;13592;50.838;4.412;2023-02-21T22:43:05;8.10;99.90
25741;DHT22;13592;50.838;4.412;2023-02-21T22:45:54;8.30;99.90
25741;DHT22;13592;50.838;4.412;2023-02-21T22:48:35;8.40;99.90
25741;DHT22;13592;50.838;4.412;2023-02-21T22:51:08;8.20;99.90
25741;DHT22;13592;50.838;4.412;2023-02-21T22:56:29;8.30;99.90
25741;DHT22;13592;50.838;4.412;2023-02-21T22:59:10;8.50;99.90
25741;DHT22;13592;50.838;4.412;2023-02-21T23:01:37;8.30;99.90
25741;DHT22;13592;50.838;4.412;2023-02-21T23:04:06;8.40;99.90
25741;DHT22;13592;50.838;4.412;2023-02-21T23:06:41;8.40;99.90
25741;DHT22;13592;50.838;4.412;2023-02-21T23:09:14;8.50;99.90
25741;DHT22;13592;50.838;4.412;2023-02-21T23:11:59;8.40;99.90
25741;DHT22;13592;50.838;4.412;2023-02-21T23:14:32;8.60;99.90
25741;DHT22;13592;50.838;4.412;2023-02-21T23:29:22;8.30;99.90
25741;DHT22;13592;50.838;4.412;2023-02-21T23:31:51;8.50;99.90
25741;DHT22;13592;50.838;4.412;2023-02-21T23:37:11;8.40;99.90
25741;DHT22;13592;50.838;4.412;2023-02-21T23:43:24;8.20;99.90
25741;DHT22;13592;50.838;4.412;2023-02-21T23:48:51;8.60;99.90
25741;DHT22;13592;50.838;4.412;2023-02-21T23:51:26;8.70;99.90
25741;DHT22;13592;50.838;4.412;2023-02-21T23:54:05;8.50;99.90
25741;DHT22;13592;50.838;4.412;2023-02-21T23:56:39;8.30;99.90
25741;DHT22;13592;50.838;4.412;2023-02-21T23:59:26;8.50;99.90
